createdAt,value
2023-05-22T00:02:26.002Z,97532.66
2023-05-22T00:04:52.833Z,97523.06
2023-05-22T00:07:19.627Z,97529.22
2023-05-22T00:09:46.602Z,97523.56
2023-05-22T00:12:13.291Z,97528.38
2023-05-22T00:14:39.908Z,97523.91
2023-05-22T00:17:06.640Z,97527.16
2023-05-22T00:19:33.554Z,97534.97
2023-05-22T00:22:00.304Z,97532.47
2023-05-22T00:24:26.967Z,97532.47
2023-05-22T00:26:53.605Z,97529.38
2023-05-22T00:29:20.307Z,97523.47
2023-05-22T00:31:47.194Z,97529.84
2023-05-22T00:34:13.894Z,97525.75
2023-05-22T00:36:40.746Z,97523.34
2023-05-22T00:39:07.390Z,97527.75
2023-05-22T00:41:34.157Z,97523.63
2023-05-22T00:44:02.873Z,97513.94
2023-05-22T00:46:29.452Z,97526.16
2023-05-22T00:48:56.109Z,97520.94
2023-05-22T00:51:22.806Z,97517.44
2023-05-22T00:53:49.778Z,97518.03
2023-05-22T00:56:17.313Z,97526.63
2023-05-22T00:58:44.307Z,97522.66
2023-05-22T01:01:11.400Z,97514.50
2023-05-22T01:03:45.257Z,97512.31
2023-05-22T01:06:13.472Z,97520.16
2023-05-22T01:08:41.449Z,97522.13
2023-05-22T01:11:11.250Z,97513.72
2023-05-22T01:13:53.866Z,97513.63
2023-05-22T01:16:32.496Z,97512.03
2023-05-22T01:19:02.955Z,97512.25
2023-05-22T01:21:38.709Z,97515.38
2023-05-22T01:24:33.026Z,97510.59
2023-05-22T01:27:11.636Z,97511.63
2023-05-22T01:29:54.616Z,97514.69
2023-05-22T01:32:23.381Z,97521.25
2023-05-22T01:34:54.240Z,97510.84
2023-05-22T01:37:24.134Z,97507.91
2023-05-22T01:39:52.226Z,97513.44
2023-05-22T01:42:19.635Z,97511.53
2023-05-22T01:44:48.788Z,97511.75
2023-05-22T01:47:15.485Z,97517.09
2023-05-22T01:49:42.888Z,97521.78
2023-05-22T01:52:41.891Z,97512.25
2023-05-22T01:55:13.671Z,97516.28
2023-05-22T01:57:47.870Z,97523.50
2023-05-22T02:00:15.291Z,97529.16
2023-05-22T02:03:07.894Z,97529.13
2023-05-22T02:05:38.785Z,97529.94
2023-05-22T02:08:06.567Z,97526.06
2023-05-22T02:10:34.159Z,97524.22
2023-05-22T02:13:00.753Z,97527.50
2023-05-22T02:15:27.373Z,97525.94
2023-05-22T02:17:54.094Z,97531.22
2023-05-22T02:20:20.692Z,97518.09
2023-05-22T02:22:47.640Z,97515.25
2023-05-22T02:25:15.067Z,97518.16
2023-05-22T02:27:42.813Z,97522.31
2023-05-22T02:30:10.054Z,97518.38
2023-05-22T02:32:36.762Z,97510.81
2023-05-22T02:35:03.480Z,97516.44
2023-05-22T02:37:30.102Z,97514.81
2023-05-22T02:39:57.145Z,97521.00
2023-05-22T02:42:23.721Z,97515.66
2023-05-22T02:44:50.543Z,97521.16
2023-05-22T02:47:17.336Z,97513.50
2023-05-22T02:49:44.530Z,97515.56
2023-05-22T02:52:11.039Z,97513.22
2023-05-22T02:54:37.526Z,97516.72
2023-05-22T02:57:04.262Z,97518.50
2023-05-22T02:59:31.777Z,97512.78
2023-05-22T03:01:58.321Z,97509.53
2023-05-22T03:04:24.902Z,97510.72
2023-05-22T03:06:51.574Z,97511.94
2023-05-22T03:09:20.211Z,97511.66
2023-05-22T03:11:46.771Z,97506.25
2023-05-22T03:14:13.274Z,97515.59
2023-05-22T03:16:39.830Z,97516.19
2023-05-22T03:19:09.274Z,97509.97
2023-05-22T03:21:36.430Z,97509.75
2023-05-22T03:24:03.303Z,97509.59
2023-05-22T03:26:30.019Z,97510.59
2023-05-22T03:28:57.191Z,97515.97
2023-05-22T03:31:24.943Z,97517.38
2023-05-22T03:33:51.543Z,97511.03
2023-05-22T03:36:18.723Z,97509.75
2023-05-22T03:38:45.391Z,97510.38
2023-05-22T03:41:11.930Z,97511.84
2023-05-22T03:43:38.459Z,97513.00
2023-05-22T03:46:05.078Z,97511.53
2023-05-22T03:48:34.592Z,97516.94
2023-05-22T03:51:01.103Z,97510.09
2023-05-22T03:53:27.672Z,97511.63
2023-05-22T03:55:54.250Z,97511.78
2023-05-22T03:58:21.020Z,97516.53
2023-05-22T04:00:47.524Z,97517.41
2023-05-22T04:03:14.149Z,97516.75
2023-05-22T04:05:40.911Z,97517.94
2023-05-22T04:08:07.441Z,97517.28
2023-05-22T04:10:35.965Z,97518.97
2023-05-22T04:13:02.661Z,97518.75
2023-05-22T04:15:29.269Z,97512.78
2023-05-22T04:17:55.912Z,97510.38
2023-05-22T04:20:25.670Z,97507.22
2023-05-22T04:22:52.231Z,97517.75
2023-05-22T04:25:18.690Z,97510.78
2023-05-22T04:27:45.275Z,97508.19
2023-05-22T04:30:12.010Z,97505.56
2023-05-22T04:32:38.594Z,97512.88
2023-05-22T04:35:05.319Z,97511.94
2023-05-22T04:37:31.969Z,97504.41
2023-05-22T04:40:03.049Z,97498.25
2023-05-22T04:42:30.935Z,97501.28
2023-05-22T04:45:00.974Z,97505.66
2023-05-22T04:47:31.845Z,97510.53
2023-05-22T04:50:00.151Z,97512.59
2023-05-22T04:55:08.685Z,97513.00
2023-05-22T04:57:35.188Z,97512.66
2023-05-22T05:00:02.023Z,97509.69
2023-05-22T05:02:28.675Z,97502.84
2023-05-22T05:04:56.221Z,97506.56
2023-05-22T05:07:23.800Z,97508.94
2023-05-22T05:09:50.559Z,97506.97
2023-05-22T05:12:17.307Z,97506.56
2023-05-22T05:14:44.031Z,97505.94
2023-05-22T05:17:10.635Z,97505.38
2023-05-22T05:19:37.389Z,97509.19
2023-05-22T05:22:04.328Z,97507.56
2023-05-22T05:24:31.146Z,97505.38
2023-05-22T05:26:57.810Z,97497.72
2023-05-22T05:29:24.524Z,97502.81
2023-05-22T05:31:51.153Z,97494.22
2023-05-22T05:34:17.629Z,97496.41
2023-05-22T05:36:44.179Z,97491.97
2023-05-22T05:39:10.790Z,97491.38
2023-05-22T05:41:37.351Z,97488.63
2023-05-22T05:44:04.202Z,97491.22
2023-05-22T05:46:30.809Z,97489.81
2023-05-22T05:48:57.977Z,97486.31
2023-05-22T05:51:24.618Z,97486.69
2023-05-22T05:53:51.277Z,97484.41
2023-05-22T05:56:17.823Z,97487.06
2023-05-22T05:58:44.353Z,97480.22
2023-05-22T06:01:11.874Z,97480.59
2023-05-22T06:03:38.685Z,97480.81
2023-05-22T06:06:06.253Z,97481.06
2023-05-22T06:08:34.484Z,97476.25
2023-05-22T06:11:01.544Z,97470.94
2023-05-22T06:13:28.170Z,97471.34
2023-05-22T06:15:54.922Z,97470.03
2023-05-22T06:18:21.581Z,97468.97
2023-05-22T06:20:55.748Z,97467.34
2023-05-22T06:23:22.264Z,97474.88
2023-05-22T06:25:48.867Z,97477.06
2023-05-22T06:28:15.426Z,97469.97
2023-05-22T06:30:42.184Z,97471.88
2023-05-22T06:33:09.047Z,97480.75
2023-05-22T06:35:35.742Z,97472.56
2023-05-22T06:38:02.871Z,97463.28
2023-05-22T06:40:29.644Z,97456.19
2023-05-22T06:42:57.990Z,97457.34
2023-05-22T06:45:24.597Z,97455.44
2023-05-22T06:47:54.968Z,97459.34
2023-05-22T06:50:22.356Z,97454.84
2023-05-22T06:52:49.485Z,97462.06
2023-05-22T06:55:16.505Z,97451.22
2023-05-22T06:57:43.115Z,97452.56
2023-05-22T07:00:12.323Z,97455.00
2023-05-22T07:02:39.853Z,97445.91
2023-05-22T07:05:07.028Z,97448.00
2023-05-22T07:07:33.819Z,97447.03
2023-05-22T07:10:00.619Z,97450.38
2023-05-22T07:12:27.770Z,97441.31
2023-05-22T07:14:54.887Z,97445.16
2023-05-22T07:17:22.162Z,97436.00
2023-05-22T07:19:49.034Z,97437.38
2023-05-22T07:22:15.946Z,97434.94
2023-05-22T07:24:43.435Z,97438.75
2023-05-22T07:27:11.384Z,97428.09
2023-05-22T07:29:38.196Z,97427.00
2023-05-22T07:32:05.676Z,97431.25
2023-05-22T07:34:34.261Z,97421.75
2023-05-22T07:37:08.442Z,97423.81
2023-05-22T07:39:35.518Z,97419.94
2023-05-22T07:42:03.170Z,97409.84
2023-05-22T07:44:29.882Z,97410.34
2023-05-22T07:46:57.103Z,97407.63
2023-05-22T07:49:24.709Z,97410.19
2023-05-22T07:51:51.589Z,97405.88
2023-05-22T07:54:18.501Z,97410.53
2023-05-22T07:56:45.892Z,97399.81
2023-05-22T07:59:12.645Z,97398.06
2023-05-22T08:01:41.864Z,97400.00
2023-05-22T08:04:08.962Z,97399.19
2023-05-22T08:06:36.154Z,97406.94
2023-05-22T08:09:04.688Z,97400.09
2023-05-22T08:11:31.486Z,97406.38
2023-05-22T08:13:58.383Z,97410.72
2023-05-22T08:16:25.205Z,97396.16
2023-05-22T08:18:51.933Z,97401.19
2023-05-22T08:21:18.981Z,97389.88
2023-05-22T08:23:45.720Z,97398.31
2023-05-22T08:26:12.398Z,97391.31
2023-05-22T08:28:44.028Z,97398.44
2023-05-22T08:31:11.709Z,97389.19
2023-05-22T08:33:38.586Z,97386.34
2023-05-22T08:36:05.970Z,97384.88
2023-05-22T08:38:32.908Z,97391.91
2023-05-22T08:41:00.184Z,97389.16
2023-05-22T08:43:28.599Z,97380.47
2023-05-22T08:46:06.261Z,97378.09
2023-05-22T08:48:33.548Z,97377.97
2023-05-22T08:51:05.309Z,97378.03
2023-05-22T08:53:35.487Z,97379.75
2023-05-22T08:56:07.012Z,97380.03
2023-05-22T08:58:36.327Z,97383.25
2023-05-22T09:01:04.989Z,97375.78
2023-05-22T09:03:35.142Z,97382.56
2023-05-22T09:06:02.368Z,97366.88
2023-05-22T09:08:29.192Z,97372.38
2023-05-22T09:10:56.466Z,97366.19
2023-05-22T09:13:30.663Z,97361.25
2023-05-22T09:16:07.653Z,97361.94
2023-05-22T09:18:34.265Z,97358.97
2023-05-22T09:21:04.898Z,97357.41
2023-05-22T09:23:33.787Z,97349.78
2023-05-22T09:26:02.183Z,97351.88
2023-05-22T09:28:36.915Z,97351.00
2023-05-22T09:31:04.471Z,97356.22
2023-05-22T09:33:32.375Z,97352.56
2023-05-22T09:35:59.598Z,97347.94
2023-05-22T09:38:29.065Z,97352.03
2023-05-22T09:40:56.546Z,97338.97
2023-05-22T09:43:25.617Z,97332.53
2023-05-22T09:46:02.088Z,97335.31
2023-05-22T09:48:29.039Z,97333.09
2023-05-22T09:50:59.869Z,97331.19
2023-05-22T09:53:29.019Z,97333.91
2023-05-22T09:56:00.195Z,97322.00
2023-05-22T09:58:32.528Z,97332.75
2023-05-22T10:00:59.699Z,97322.94
2023-05-22T10:03:27.716Z,97321.53
2023-05-22T10:05:56.599Z,97327.66
2023-05-22T10:08:29.312Z,97317.91
2023-05-22T10:10:56.021Z,97323.53
2023-05-22T10:13:24.340Z,97331.53
2023-05-22T10:15:51.562Z,97321.13
2023-05-22T10:18:18.666Z,97317.31
2023-05-22T10:20:47.269Z,97315.63
2023-05-22T10:23:16.570Z,97313.69
2023-05-22T10:25:44.665Z,97326.84
2023-05-22T10:28:14.778Z,97315.47
2023-05-22T10:30:42.647Z,97318.72
2023-05-22T10:33:25.839Z,97315.81
2023-05-22T10:35:57.195Z,97314.00
2023-05-22T10:38:55.019Z,97315.16
2023-05-22T10:41:23.485Z,97308.81
2023-05-22T10:43:51.196Z,97300.88
2023-05-22T10:46:18.541Z,97308.28
2023-05-22T10:48:47.580Z,97300.97
2023-05-22T10:51:16.304Z,97301.38
2023-05-22T10:53:43.455Z,97297.16
2023-05-22T10:56:12.109Z,97291.66
2023-05-22T10:58:39.671Z,97296.88
2023-05-22T11:01:20.191Z,97293.53
2023-05-22T11:04:11.940Z,97290.97
2023-05-22T11:06:45.883Z,97289.69
2023-05-22T11:09:29.611Z,97284.34
2023-05-22T11:12:24.647Z,97279.75
2023-05-22T11:14:54.036Z,97274.03
2023-05-22T11:17:31.095Z,97262.09
2023-05-22T11:20:13.311Z,97266.34
2023-05-22T11:22:43.072Z,97258.78
2023-05-22T11:25:12.075Z,97264.31
2023-05-22T11:27:41.300Z,97256.53
2023-05-22T11:30:09.429Z,97258.91
2023-05-22T11:32:40.665Z,97250.81
2023-05-22T11:35:10.255Z,97249.91
2023-05-22T11:37:40.957Z,97250.22
2023-05-22T11:40:08.771Z,97240.31
2023-05-22T11:42:36.410Z,97240.53
2023-05-22T11:45:04.164Z,97242.63
2023-05-22T11:47:31.332Z,97240.28
2023-05-22T11:49:59.831Z,97238.44
2023-05-22T11:52:31.989Z,97240.53
2023-05-22T11:54:58.652Z,97242.06
2023-05-22T11:57:25.488Z,97239.88
2023-05-22T11:59:52.204Z,97238.25
2023-05-22T12:02:19.915Z,97237.31
2023-05-22T12:04:46.965Z,97241.28
2023-05-22T12:07:14.300Z,97242.69
2023-05-22T12:09:42.774Z,97230.97
2023-05-22T12:12:11.567Z,97236.66
2023-05-22T12:14:38.499Z,97233.72
2023-05-22T12:17:06.413Z,97230.53
2023-05-22T12:19:33.241Z,97226.97
2023-05-22T12:21:59.954Z,97220.22
2023-05-22T12:24:26.653Z,97215.72
2023-05-22T12:26:54.007Z,97205.22
2023-05-22T12:29:23.934Z,97215.50
2023-05-22T12:31:51.302Z,97213.78
2023-05-22T12:34:21.418Z,97201.44
2023-05-22T12:36:48.135Z,97204.97
2023-05-22T12:39:18.832Z,97216.13
2023-05-22T12:41:48.476Z,97199.53
2023-05-22T12:44:16.460Z,97207.41
2023-05-22T12:46:43.286Z,97204.44
2023-05-22T12:49:10.869Z,97196.53
2023-05-22T12:51:40.510Z,97193.22
2023-05-22T12:54:07.209Z,97187.97
2023-05-22T12:56:33.888Z,97187.03
2023-05-22T12:59:00.526Z,97184.41
2023-05-22T13:01:32.125Z,97180.56
2023-05-22T13:03:58.728Z,97182.25
2023-05-22T13:06:28.475Z,97177.72
2023-05-22T13:08:56.405Z,97181.38
2023-05-22T13:11:23.576Z,97170.13
2023-05-22T13:13:50.149Z,97175.16
2023-05-22T13:16:16.856Z,97169.34
2023-05-22T13:18:44.338Z,97170.47
2023-05-22T13:21:12.658Z,97164.03
2023-05-22T13:23:39.285Z,97162.97
2023-05-22T13:26:06.098Z,97164.38
2023-05-22T13:28:32.677Z,97165.56
2023-05-22T13:30:59.359Z,97159.72
2023-05-22T13:33:26.296Z,97168.47
2023-05-22T13:35:53.075Z,97161.50
2023-05-22T13:38:19.723Z,97159.69
2023-05-22T13:40:48.338Z,97156.75
2023-05-22T13:43:15.545Z,97165.13
2023-05-22T13:45:42.402Z,97154.06
2023-05-22T13:48:09.340Z,97149.13
2023-05-22T13:50:36.098Z,97155.69
2023-05-22T13:53:02.879Z,97157.00
2023-05-22T13:55:29.663Z,97153.41
2023-05-22T13:57:56.233Z,97146.09
2023-05-22T14:00:22.959Z,97138.31
2023-05-22T14:02:49.758Z,97145.53
2023-05-22T14:05:16.619Z,97145.00
2023-05-22T14:07:43.442Z,97138.56
2023-05-22T14:10:10.721Z,97139.16
2023-05-22T14:12:37.493Z,97140.63
2023-05-22T14:15:04.531Z,97133.59
2023-05-22T14:17:31.189Z,97134.16
2023-05-22T14:19:59.144Z,97119.16
2023-05-22T14:22:25.806Z,97123.34
2023-05-22T14:24:52.866Z,97128.94
2023-05-22T14:27:19.485Z,97112.53
2023-05-22T14:29:46.214Z,97132.91
2023-05-22T14:32:12.816Z,97126.31
2023-05-22T14:34:39.550Z,97119.88
2023-05-22T14:37:06.224Z,97118.38
2023-05-22T14:39:32.926Z,97127.16
2023-05-22T14:41:59.691Z,97119.66
2023-05-22T14:44:29.224Z,97124.31
2023-05-22T14:46:55.951Z,97117.53
2023-05-22T14:49:22.836Z,97115.84
2023-05-22T14:51:49.427Z,97113.53
2023-05-22T14:54:19.138Z,97123.44
2023-05-22T14:56:46.378Z,97109.94
2023-05-22T14:59:13.572Z,97116.06
2023-05-22T15:01:40.417Z,97104.28
2023-05-22T15:04:08.695Z,97103.13
2023-05-22T15:06:35.601Z,97104.03
2023-05-22T15:09:02.429Z,97107.19
2023-05-22T15:11:29.048Z,97111.03
2023-05-22T15:13:55.905Z,97106.00
2023-05-22T15:16:22.740Z,97106.94
2023-05-22T15:18:49.760Z,97098.53
2023-05-22T15:21:16.977Z,97104.44
2023-05-22T15:23:43.683Z,97101.47
2023-05-22T15:26:10.348Z,97099.94
2023-05-22T15:28:37.042Z,97105.03
2023-05-22T15:31:03.782Z,97100.50
2023-05-22T15:33:30.902Z,97094.22
2023-05-22T15:35:57.532Z,97097.97
2023-05-22T15:38:24.256Z,97094.59
2023-05-22T15:40:51.092Z,97081.69
2023-05-22T15:43:17.787Z,97088.50
2023-05-22T15:45:48.436Z,97089.69
2023-05-22T15:48:16.665Z,97085.66
2023-05-22T15:50:43.336Z,97081.97
2023-05-22T15:53:10.148Z,97080.28
2023-05-22T15:55:36.780Z,97082.47
2023-05-22T15:58:06.207Z,97085.78
2023-05-22T16:00:38.637Z,97086.13
2023-05-22T16:03:08.359Z,97085.56
2023-05-22T16:05:41.687Z,97092.28
2023-05-22T16:08:11.826Z,97081.53
2023-05-22T16:10:41.570Z,97093.56
2023-05-22T16:13:10.627Z,97086.25
2023-05-22T16:15:39.840Z,97089.59
2023-05-22T16:18:07.439Z,97090.97
2023-05-22T16:20:35.466Z,97080.31
2023-05-22T16:23:02.304Z,97082.09
2023-05-22T16:25:29.029Z,97084.97
2023-05-22T16:27:55.768Z,97078.72
2023-05-22T16:30:22.388Z,97079.00
2023-05-22T16:32:49.065Z,97086.56
2023-05-22T16:35:16.066Z,97088.16
2023-05-22T16:37:42.782Z,97093.28
2023-05-22T16:40:09.755Z,97084.59
2023-05-22T16:42:37.198Z,97090.06
2023-05-22T16:45:07.509Z,97089.75
2023-05-22T16:47:34.176Z,97094.78
2023-05-22T16:50:01.029Z,97088.53
2023-05-22T16:52:28.065Z,97090.81
2023-05-22T16:54:54.818Z,97096.13
2023-05-22T16:57:21.471Z,97103.84
2023-05-22T16:59:48.311Z,97104.25
2023-05-22T17:02:15.202Z,97101.56
2023-05-22T17:04:41.962Z,97109.44
2023-05-22T17:07:08.651Z,97107.56
2023-05-22T17:09:35.450Z,97107.47
2023-05-22T17:12:02.031Z,97106.38
2023-05-22T17:14:28.708Z,97109.03
2023-05-22T17:16:55.832Z,97111.44
2023-05-22T17:19:23.076Z,97119.94
2023-05-22T17:21:49.988Z,97123.81
2023-05-22T17:24:16.676Z,97121.06
2023-05-22T17:26:44.511Z,97119.56
2023-05-22T17:29:11.657Z,97124.22
2023-05-22T17:31:39.532Z,97122.75
2023-05-22T17:34:06.539Z,97125.56
2023-05-22T17:36:33.376Z,97123.47
2023-05-22T17:39:00.754Z,97134.91
2023-05-22T17:41:27.401Z,97133.72
2023-05-22T17:43:55.952Z,97133.72
2023-05-22T17:46:23.264Z,97134.31
2023-05-22T17:48:49.913Z,97142.03
2023-05-22T17:51:16.606Z,97149.34
2023-05-22T17:53:43.280Z,97155.25
2023-05-22T17:56:12.763Z,97159.06
2023-05-22T17:58:39.474Z,97161.88
2023-05-22T18:01:06.140Z,97162.81
2023-05-22T18:03:34.056Z,97167.59
2023-05-22T18:06:01.015Z,97165.97
2023-05-22T18:08:28.942Z,97169.72
2023-05-22T18:10:57.273Z,97185.03
2023-05-22T18:13:23.963Z,97178.34
2023-05-22T18:15:51.747Z,97181.50
2023-05-22T18:18:18.352Z,97181.00
2023-05-22T18:20:46.250Z,97187.78
2023-05-22T18:23:12.931Z,97194.94
2023-05-22T18:25:39.609Z,97201.09
2023-05-22T18:28:06.225Z,97193.16
2023-05-22T18:30:32.940Z,97207.94
2023-05-22T18:32:59.706Z,97218.28
2023-05-22T18:35:26.350Z,97220.38
2023-05-22T18:37:52.969Z,97226.75
2023-05-22T18:40:19.744Z,97234.31
2023-05-22T18:42:46.404Z,97243.25
2023-05-22T18:45:13.564Z,97237.06
2023-05-22T18:47:40.474Z,97243.22
2023-05-22T18:50:08.732Z,97249.34
2023-05-22T18:52:35.510Z,97248.91
2023-05-22T18:55:02.153Z,97247.59
2023-05-22T18:57:28.866Z,97258.81
2023-05-22T18:59:55.591Z,97256.72
2023-05-22T19:02:22.445Z,97258.44
2023-05-22T19:04:50.609Z,97256.84
2023-05-22T19:07:17.594Z,97259.72
2023-05-22T19:09:44.368Z,97263.00
2023-05-22T19:12:11.056Z,97265.97
2023-05-22T19:14:39.791Z,97264.50
2023-05-22T19:17:06.548Z,97274.41
2023-05-22T19:19:33.518Z,97279.97
2023-05-22T19:22:00.148Z,97286.16
2023-05-22T19:24:28.320Z,97288.16
2023-05-22T19:26:54.918Z,97294.53
2023-05-22T19:29:21.620Z,97298.03
2023-05-22T19:31:48.237Z,97300.44
2023-05-22T19:34:14.993Z,97305.34
2023-05-22T19:36:41.773Z,97307.31
2023-05-22T19:39:08.410Z,97307.63
2023-05-22T19:41:35.043Z,97301.69
2023-05-22T19:44:01.887Z,97306.72
2023-05-22T19:46:28.836Z,97303.38
2023-05-22T19:48:55.667Z,97307.91
2023-05-22T19:51:22.341Z,97302.38
2023-05-22T19:53:49.022Z,97304.63
2023-05-22T19:56:16.050Z,97310.56
2023-05-22T19:58:43.594Z,97309.59
2023-05-22T20:01:10.576Z,97322.88
2023-05-22T20:03:37.648Z,97317.66
2023-05-22T20:06:04.630Z,97320.97
2023-05-22T20:08:31.304Z,97318.13
2023-05-22T20:10:57.902Z,97321.81
2023-05-22T20:13:24.565Z,97324.66
2023-05-22T20:15:53.492Z,97324.94
2023-05-22T20:18:22.192Z,97334.59
2023-05-22T20:20:48.875Z,97336.31
2023-05-22T20:23:15.927Z,97337.72
2023-05-22T20:25:42.810Z,97339.97
2023-05-22T20:28:09.693Z,97342.50
2023-05-22T20:30:36.573Z,97334.63
2023-05-22T20:33:03.238Z,97338.13
2023-05-22T20:35:31.027Z,97334.63
2023-05-22T20:38:08.649Z,97329.00
2023-05-22T20:40:36.866Z,97345.59
2023-05-22T20:43:03.760Z,97345.06
2023-05-22T20:45:30.825Z,97336.00
2023-05-22T20:47:57.704Z,97343.97
2023-05-22T20:50:24.456Z,97336.34
2023-05-22T20:52:51.386Z,97339.25
2023-05-22T20:55:18.145Z,97341.84
2023-05-22T20:57:44.925Z,97335.69
2023-05-22T21:00:14.000Z,97339.47
2023-05-22T21:02:40.923Z,97334.59
2023-05-22T21:05:08.085Z,97342.69
2023-05-22T21:07:34.861Z,97344.59
2023-05-22T21:10:01.516Z,97339.63
2023-05-22T21:12:28.914Z,97340.47
2023-05-22T21:14:55.657Z,97337.91
2023-05-22T21:17:23.196Z,97346.41
2023-05-22T21:19:49.926Z,97345.28
2023-05-22T21:22:16.521Z,97346.66
2023-05-22T21:24:43.548Z,97345.38
2023-05-22T21:27:10.196Z,97348.09
2023-05-22T21:29:36.749Z,97346.28
2023-05-22T21:32:03.371Z,97350.50
2023-05-22T21:34:30.030Z,97349.34
2023-05-22T21:36:56.617Z,97357.56
2023-05-22T21:39:23.182Z,97351.88
2023-05-22T21:41:51.277Z,97352.16
2023-05-22T21:44:18.505Z,97354.59
2023-05-22T21:46:45.246Z,97350.06
2023-05-22T21:49:11.993Z,97348.06
2023-05-22T21:51:38.648Z,97349.72
2023-05-22T21:54:05.474Z,97349.22
2023-05-22T21:56:32.090Z,97349.56
2023-05-22T21:58:58.643Z,97353.19
2023-05-22T22:01:25.571Z,97350.88
2023-05-22T22:03:52.292Z,97356.53
2023-05-22T22:06:18.984Z,97354.50
2023-05-22T22:08:45.795Z,97356.97
2023-05-22T22:11:12.493Z,97359.75
2023-05-22T22:13:39.133Z,97358.47
2023-05-22T22:16:06.228Z,97357.06
2023-05-22T22:18:33.748Z,97358.16
2023-05-22T22:21:02.430Z,97357.09
2023-05-22T22:23:29.436Z,97359.81
2023-05-22T22:25:56.301Z,97365.59
2023-05-22T22:28:23.061Z,97360.44
2023-05-22T22:30:49.764Z,97355.31
2023-05-22T22:33:16.612Z,97358.38
2023-05-22T22:35:43.408Z,97348.53
2023-05-22T22:38:10.094Z,97355.44
2023-05-22T22:40:36.741Z,97349.44
2023-05-22T22:43:03.822Z,97350.66
2023-05-22T22:45:30.452Z,97345.41
2023-05-22T22:47:57.255Z,97358.81
2023-05-22T22:50:26.732Z,97347.16
2023-05-22T22:52:53.608Z,97345.84
2023-05-22T22:55:20.711Z,97336.72
2023-05-22T22:57:50.029Z,97344.28
2023-05-22T23:00:19.026Z,97341.09
2023-05-22T23:02:46.353Z,97341.75
2023-05-22T23:05:13.568Z,97339.50
2023-05-22T23:07:40.432Z,97346.38
2023-05-22T23:10:08.233Z,97341.06
2023-05-22T23:12:36.288Z,97340.84
2023-05-22T23:15:03.721Z,97335.81
2023-05-22T23:17:30.779Z,97336.97
2023-05-22T23:19:57.607Z,97331.38
2023-05-22T23:22:24.254Z,97332.34
2023-05-22T23:24:51.050Z,97339.50
2023-05-22T23:27:17.767Z,97335.00
2023-05-22T23:29:44.433Z,97339.31
2023-05-22T23:32:13.082Z,97339.91
2023-05-22T23:34:42.464Z,97344.72
2023-05-22T23:37:12.370Z,97335.00
2023-05-22T23:39:39.139Z,97335.44
2023-05-22T23:42:06.145Z,97325.50
2023-05-22T23:44:32.831Z,97325.50
2023-05-22T23:46:59.638Z,97326.09
2023-05-22T23:49:26.879Z,97326.63
2023-05-22T23:51:53.847Z,97329.84
2023-05-22T23:54:20.803Z,97334.44
2023-05-22T23:56:48.242Z,97334.03
2023-05-22T23:59:15.737Z,97329.94
